sensor_id;sensor_type;location;lat;lon;timestamp;P1;durP1;ratioP1;P2;durP2;ratioP2
43664;SDS011;29263;48.172;11.484;2023-09-08T00:00:18;7.15;;;5.10;;
43664;SDS011;29263;48.172;11.484;2023-09-08T00:02:44;5.82;;;4.63;;
43664;SDS011;29263;48.172;11.484;2023-09-08T00:05:12;6.97;;;5.13;;
43664;SDS011;29263;48.172;11.484;2023-09-08T00:07:41;7.63;;;4.72;;
43664;SDS011;29263;48.172;11.484;2023-09-08T00:10:08;6.57;;;4.88;;
43664;SDS011;29263;48.172;11.484;2023-09-08T00:12:34;8.35;;;5.00;;
43664;SDS011;29263;48.172;11.484;2023-09-08T00:15:00;6.50;;;4.68;;
43664;SDS011;29263;48.172;11.484;2023-09-08T00:17:26;8.07;;;4.82;;
43664;SDS011;29263;48.172;11.484;2023-09-08T00:19:52;9.52;;;4.72;;
43664;SDS011;29263;48.172;11.484;2023-09-08T00:22:18;8.80;;;4.65;;
43664;SDS011;29263;48.172;11.484;2023-09-08T00:24:46;5.72;;;4.25;;
43664;SDS011;29263;48.172;11.484;2023-09-08T00:27:16;10.15;;;4.88;;
43664;SDS011;29263;48.172;11.484;2023-09-08T00:30:00;8.05;;;4.40;;
43664;SDS011;29263;48.172;11.484;2023-09-08T00:32:29;7.00;;;4.53;;
43664;SDS011;29263;48.172;11.484;2023-09-08T00:34:57;6.75;;;4.60;;
43664;SDS011;29263;48.172;11.484;2023-09-08T00:37:23;10.40;;;5.20;;
43664;SDS011;29263;48.172;11.484;2023-09-08T00:39:58;9.13;;;4.47;;
43664;SDS011;29263;48.172;11.484;2023-09-08T00:42:38;6.60;;;4.88;;
43664;SDS011;29263;48.172;11.484;2023-09-08T00:45:07;7.07;;;5.03;;
43664;SDS011;29263;48.172;11.484;2023-09-08T00:47:36;6.15;;;4.75;;
43664;SDS011;29263;48.172;11.484;2023-09-08T00:50:02;9.00;;;4.40;;
43664;SDS011;29263;48.172;11.484;2023-09-08T00:52:29;7.20;;;4.72;;
43664;SDS011;29263;48.172;11.484;2023-09-08T00:54:59;6.22;;;4.55;;
43664;SDS011;29263;48.172;11.484;2023-09-08T00:57:25;6.35;;;4.43;;
43664;SDS011;29263;48.172;11.484;2023-09-08T00:59:56;6.32;;;4.78;;
43664;SDS011;29263;48.172;11.484;2023-09-08T01:02:23;8.05;;;5.07;;
43664;SDS011;29263;48.172;11.484;2023-09-08T01:04:49;6.43;;;4.38;;
43664;SDS011;29263;48.172;11.484;2023-09-08T01:07:22;7.07;;;4.70;;
43664;SDS011;29263;48.172;11.484;2023-09-08T01:10:00;6.85;;;4.60;;
43664;SDS011;29263;48.172;11.484;2023-09-08T01:12:29;6.43;;;4.63;;
43664;SDS011;29263;48.172;11.484;2023-09-08T01:14:55;6.43;;;4.75;;
43664;SDS011;29263;48.172;11.484;2023-09-08T01:17:20;7.60;;;4.13;;
43664;SDS011;29263;48.172;11.484;2023-09-08T01:19:46;6.90;;;4.95;;
43664;SDS011;29263;48.172;11.484;2023-09-08T01:25:09;9.57;;;5.18;;
43664;SDS011;29263;48.172;11.484;2023-09-08T01:27:37;7.30;;;4.93;;
43664;SDS011;29263;48.172;11.484;2023-09-08T01:30:04;6.63;;;4.85;;
43664;SDS011;29263;48.172;11.484;2023-09-08T01:32:32;7.70;;;4.95;;
43664;SDS011;29263;48.172;11.484;2023-09-08T01:34:59;7.75;;;4.75;;
43664;SDS011;29263;48.172;11.484;2023-09-08T01:37:25;7.97;;;4.50;;
43664;SDS011;29263;48.172;11.484;2023-09-08T01:39:51;7.82;;;4.40;;
43664;SDS011;29263;48.172;11.484;2023-09-08T01:42:16;7.25;;;4.90;;
43664;SDS011;29263;48.172;11.484;2023-09-08T01:44:42;6.00;;;4.55;;
43664;SDS011;29263;48.172;11.484;2023-09-08T01:47:08;7.13;;;4.82;;
43664;SDS011;29263;48.172;11.484;2023-09-08T01:49:33;6.88;;;4.30;;
43664;SDS011;29263;48.172;11.484;2023-09-08T01:51:59;8.02;;;4.78;;
43664;SDS011;29263;48.172;11.484;2023-09-08T01:54:25;5.78;;;4.50;;
43664;SDS011;29263;48.172;11.484;2023-09-08T01:56:50;7.82;;;4.40;;
43664;SDS011;29263;48.172;11.484;2023-09-08T01:59:16;7.50;;;4.70;;
43664;SDS011;29263;48.172;11.484;2023-09-08T02:01:42;5.78;;;4.25;;
43664;SDS011;29263;48.172;11.484;2023-09-08T02:04:07;6.88;;;4.13;;
43664;SDS011;29263;48.172;11.484;2023-09-08T02:06:33;5.50;;;4.57;;
43664;SDS011;29263;48.172;11.484;2023-09-08T02:08:59;6.32;;;4.72;;
43664;SDS011;29263;48.172;11.484;2023-09-08T02:11:24;6.50;;;4.70;;
43664;SDS011;29263;48.172;11.484;2023-09-08T02:13:51;6.05;;;4.78;;
43664;SDS011;29263;48.172;11.484;2023-09-08T02:16:17;5.53;;;4.25;;
43664;SDS011;29263;48.172;11.484;2023-09-08T02:18:46;5.63;;;4.53;;
43664;SDS011;29263;48.172;11.484;2023-09-08T02:21:12;6.07;;;4.32;;
43664;SDS011;29263;48.172;11.484;2023-09-08T02:23:37;8.40;;;4.88;;
43664;SDS011;29263;48.172;11.484;2023-09-08T02:26:03;7.40;;;4.60;;
43664;SDS011;29263;48.172;11.484;2023-09-08T02:28:29;6.43;;;4.32;;
43664;SDS011;29263;48.172;11.484;2023-09-08T02:30:54;5.70;;;4.40;;
43664;SDS011;29263;48.172;11.484;2023-09-08T02:33:20;8.52;;;4.57;;
43664;SDS011;29263;48.172;11.484;2023-09-08T02:35:46;5.35;;;4.13;;
43664;SDS011;29263;48.172;11.484;2023-09-08T02:38:11;6.68;;;5.15;;
43664;SDS011;29263;48.172;11.484;2023-09-08T02:40:37;7.97;;;4.47;;
43664;SDS011;29263;48.172;11.484;2023-09-08T02:43:03;7.68;;;4.90;;
43664;SDS011;29263;48.172;11.484;2023-09-08T02:45:29;5.45;;;4.55;;
43664;SDS011;29263;48.172;11.484;2023-09-08T02:47:54;10.02;;;4.38;;
43664;SDS011;29263;48.172;11.484;2023-09-08T02:50:20;7.43;;;4.93;;
43664;SDS011;29263;48.172;11.484;2023-09-08T02:52:46;7.70;;;4.20;;
43664;SDS011;29263;48.172;11.484;2023-09-08T02:55:12;6.03;;;4.72;;
43664;SDS011;29263;48.172;11.484;2023-09-08T02:57:38;9.35;;;4.43;;
43664;SDS011;29263;48.172;11.484;2023-09-08T03:00:04;7.65;;;4.80;;
43664;SDS011;29263;48.172;11.484;2023-09-08T03:02:32;6.47;;;4.32;;
43664;SDS011;29263;48.172;11.484;2023-09-08T03:04:58;8.23;;;4.28;;
43664;SDS011;29263;48.172;11.484;2023-09-08T03:07:24;5.90;;;4.30;;
43664;SDS011;29263;48.172;11.484;2023-09-08T03:09:49;6.45;;;4.63;;
43664;SDS011;29263;48.172;11.484;2023-09-08T03:12:15;6.43;;;4.32;;
43664;SDS011;29263;48.172;11.484;2023-09-08T03:14:40;6.75;;;4.43;;
43664;SDS011;29263;48.172;11.484;2023-09-08T03:17:06;6.88;;;4.53;;
43664;SDS011;29263;48.172;11.484;2023-09-08T03:19:31;7.03;;;3.95;;
43664;SDS011;29263;48.172;11.484;2023-09-08T03:21:57;5.93;;;4.47;;
43664;SDS011;29263;48.172;11.484;2023-09-08T03:24:23;8.32;;;4.43;;
43664;SDS011;29263;48.172;11.484;2023-09-08T03:26:49;10.60;;;4.18;;
43664;SDS011;29263;48.172;11.484;2023-09-08T03:29:14;8.90;;;4.40;;
43664;SDS011;29263;48.172;11.484;2023-09-08T03:31:40;7.70;;;4.13;;
43664;SDS011;29263;48.172;11.484;2023-09-08T03:34:06;6.72;;;4.22;;
43664;SDS011;29263;48.172;11.484;2023-09-08T03:36:31;6.65;;;4.22;;
43664;SDS011;29263;48.172;11.484;2023-09-08T03:39:00;7.07;;;4.65;;
43664;SDS011;29263;48.172;11.484;2023-09-08T03:41:27;8.07;;;4.40;;
43664;SDS011;29263;48.172;11.484;2023-09-08T03:43:52;5.07;;;4.30;;
43664;SDS011;29263;48.172;11.484;2023-09-08T03:46:18;6.43;;;4.30;;
43664;SDS011;29263;48.172;11.484;2023-09-08T03:48:43;7.07;;;4.43;;
43664;SDS011;29263;48.172;11.484;2023-09-08T03:51:09;5.85;;;4.28;;
43664;SDS011;29263;48.172;11.484;2023-09-08T03:53:35;5.72;;;4.57;;
43664;SDS011;29263;48.172;11.484;2023-09-08T03:56:00;5.63;;;4.53;;
43664;SDS011;29263;48.172;11.484;2023-09-08T03:58:26;6.78;;;4.55;;
43664;SDS011;29263;48.172;11.484;2023-09-08T04:00:51;5.32;;;4.40;;
43664;SDS011;29263;48.172;11.484;2023-09-08T04:03:17;6.40;;;4.35;;
43664;SDS011;29263;48.172;11.484;2023-09-08T04:05:43;6.32;;;4.50;;
43664;SDS011;29263;48.172;11.484;2023-09-08T04:08:08;7.47;;;4.30;;
43664;SDS011;29263;48.172;11.484;2023-09-08T04:10:34;7.53;;;4.43;;
43664;SDS011;29263;48.172;11.484;2023-09-08T04:13:00;5.90;;;4.05;;
43664;SDS011;29263;48.172;11.484;2023-09-08T04:15:25;6.78;;;4.45;;
43664;SDS011;29263;48.172;11.484;2023-09-08T04:17:51;9.30;;;4.25;;
43664;SDS011;29263;48.172;11.484;2023-09-08T04:20:17;5.10;;;3.85;;
43664;SDS011;29263;48.172;11.484;2023-09-08T04:22:42;6.10;;;4.40;;
43664;SDS011;29263;48.172;11.484;2023-09-08T04:25:09;8.15;;;4.50;;
43664;SDS011;29263;48.172;11.484;2023-09-08T04:27:35;7.85;;;4.15;;
43664;SDS011;29263;48.172;11.484;2023-09-08T04:30:02;6.80;;;4.20;;
43664;SDS011;29263;48.172;11.484;2023-09-08T04:32:29;8.60;;;4.10;;
43664;SDS011;29263;48.172;11.484;2023-09-08T04:34:54;6.93;;;4.13;;
43664;SDS011;29263;48.172;11.484;2023-09-08T04:37:20;6.22;;;3.88;;
43664;SDS011;29263;48.172;11.484;2023-09-08T04:39:46;7.50;;;4.45;;
43664;SDS011;29263;48.172;11.484;2023-09-08T04:42:11;5.38;;;4.28;;
43664;SDS011;29263;48.172;11.484;2023-09-08T04:44:38;6.28;;;4.35;;
43664;SDS011;29263;48.172;11.484;2023-09-08T04:47:04;6.88;;;3.80;;
43664;SDS011;29263;48.172;11.484;2023-09-08T04:49:29;7.60;;;4.60;;
43664;SDS011;29263;48.172;11.484;2023-09-08T04:51:55;5.47;;;4.38;;
43664;SDS011;29263;48.172;11.484;2023-09-08T04:54:21;5.93;;;4.10;;
43664;SDS011;29263;48.172;11.484;2023-09-08T04:56:49;5.18;;;3.90;;
43664;SDS011;29263;48.172;11.484;2023-09-08T04:59:15;10.13;;;4.85;;
43664;SDS011;29263;48.172;11.484;2023-09-08T05:01:41;7.65;;;4.53;;
43664;SDS011;29263;48.172;11.484;2023-09-08T05:04:08;6.18;;;4.45;;
43664;SDS011;29263;48.172;11.484;2023-09-08T05:06:35;5.45;;;4.05;;
43664;SDS011;29263;48.172;11.484;2023-09-08T05:09:00;6.15;;;3.67;;
43664;SDS011;29263;48.172;11.484;2023-09-08T05:11:26;6.63;;;4.40;;
43664;SDS011;29263;48.172;11.484;2023-09-08T05:13:52;5.88;;;3.75;;
43664;SDS011;29263;48.172;11.484;2023-09-08T05:16:18;6.20;;;4.22;;
43664;SDS011;29263;48.172;11.484;2023-09-08T05:18:50;5.25;;;4.40;;
43664;SDS011;29263;48.172;11.484;2023-09-08T05:21:16;4.63;;;3.70;;
43664;SDS011;29263;48.172;11.484;2023-09-08T05:23:42;7.35;;;4.38;;
43664;SDS011;29263;48.172;11.484;2023-09-08T05:26:07;5.90;;;4.38;;
43664;SDS011;29263;48.172;11.484;2023-09-08T05:28:33;5.60;;;3.97;;
43664;SDS011;29263;48.172;11.484;2023-09-08T05:30:59;5.60;;;4.43;;
43664;SDS011;29263;48.172;11.484;2023-09-08T05:33:24;5.72;;;4.25;;
43664;SDS011;29263;48.172;11.484;2023-09-08T05:35:50;5.45;;;4.18;;
43664;SDS011;29263;48.172;11.484;2023-09-08T05:38:15;6.93;;;4.07;;
43664;SDS011;29263;48.172;11.484;2023-09-08T05:40:41;6.10;;;3.75;;
43664;SDS011;29263;48.172;11.484;2023-09-08T05:43:07;7.85;;;4.30;;
43664;SDS011;29263;48.172;11.484;2023-09-08T05:45:32;6.70;;;3.92;;
43664;SDS011;29263;48.172;11.484;2023-09-08T05:47:58;5.63;;;4.10;;
43664;SDS011;29263;48.172;11.484;2023-09-08T05:50:23;4.68;;;3.85;;
43664;SDS011;29263;48.172;11.484;2023-09-08T05:52:49;6.82;;;4.60;;
43664;SDS011;29263;48.172;11.484;2023-09-08T05:55:16;6.25;;;4.28;;
43664;SDS011;29263;48.172;11.484;2023-09-08T05:57:42;4.80;;;4.18;;
43664;SDS011;29263;48.172;11.484;2023-09-08T06:00:08;6.90;;;3.80;;
43664;SDS011;29263;48.172;11.484;2023-09-08T06:02:33;5.47;;;3.80;;
43664;SDS011;29263;48.172;11.484;2023-09-08T06:04:59;6.50;;;4.28;;
43664;SDS011;29263;48.172;11.484;2023-09-08T06:07:25;5.20;;;3.88;;
43664;SDS011;29263;48.172;11.484;2023-09-08T06:09:50;8.07;;;4.25;;
43664;SDS011;29263;48.172;11.484;2023-09-08T06:12:16;7.30;;;5.00;;
43664;SDS011;29263;48.172;11.484;2023-09-08T06:14:42;4.47;;;3.67;;
43664;SDS011;29263;48.172;11.484;2023-09-08T06:17:07;5.07;;;3.95;;
43664;SDS011;29263;48.172;11.484;2023-09-08T06:19:38;6.18;;;4.18;;
43664;SDS011;29263;48.172;11.484;2023-09-08T06:22:15;5.05;;;3.95;;
43664;SDS011;29263;48.172;11.484;2023-09-08T06:24:41;5.78;;;4.20;;
43664;SDS011;29263;48.172;11.484;2023-09-08T06:27:10;6.85;;;4.47;;
43664;SDS011;29263;48.172;11.484;2023-09-08T06:29:39;6.95;;;4.47;;
43664;SDS011;29263;48.172;11.484;2023-09-08T06:32:07;8.32;;;4.88;;
43664;SDS011;29263;48.172;11.484;2023-09-08T06:34:36;6.45;;;4.50;;
43664;SDS011;29263;48.172;11.484;2023-09-08T06:37:02;6.47;;;4.75;;
43664;SDS011;29263;48.172;11.484;2023-09-08T06:39:28;9.73;;;4.38;;
43664;SDS011;29263;48.172;11.484;2023-09-08T06:41:57;6.05;;;4.38;;
43664;SDS011;29263;48.172;11.484;2023-09-08T06:44:23;7.75;;;4.97;;
43664;SDS011;29263;48.172;11.484;2023-09-08T06:46:49;5.82;;;4.85;;
43664;SDS011;29263;48.172;11.484;2023-09-08T06:49:15;8.30;;;6.97;;
43664;SDS011;29263;48.172;11.484;2023-09-08T06:51:40;7.35;;;5.60;;
43664;SDS011;29263;48.172;11.484;2023-09-08T06:54:06;10.38;;;6.32;;
43664;SDS011;29263;48.172;11.484;2023-09-08T06:56:32;8.63;;;5.45;;
43664;SDS011;29263;48.172;11.484;2023-09-08T06:58:57;11.20;;;5.30;;
43664;SDS011;29263;48.172;11.484;2023-09-08T07:01:23;9.25;;;6.95;;
43664;SDS011;29263;48.172;11.484;2023-09-08T07:03:49;8.82;;;5.88;;
43664;SDS011;29263;48.172;11.484;2023-09-08T07:06:15;8.30;;;6.22;;
43664;SDS011;29263;48.172;11.484;2023-09-08T07:08:41;10.35;;;5.72;;
43664;SDS011;29263;48.172;11.484;2023-09-08T07:11:07;10.50;;;6.40;;
43664;SDS011;29263;48.172;11.484;2023-09-08T07:13:32;11.38;;;5.90;;
43664;SDS011;29263;48.172;11.484;2023-09-08T07:15:58;9.25;;;6.18;;
43664;SDS011;29263;48.172;11.484;2023-09-08T07:18:24;7.63;;;5.43;;
43664;SDS011;29263;48.172;11.484;2023-09-08T07:20:50;6.80;;;5.40;;
43664;SDS011;29263;48.172;11.484;2023-09-08T07:23:18;10.00;;;6.07;;
43664;SDS011;29263;48.172;11.484;2023-09-08T07:25:47;8.52;;;5.97;;
43664;SDS011;29263;48.172;11.484;2023-09-08T07:28:14;6.65;;;5.50;;
43664;SDS011;29263;48.172;11.484;2023-09-08T07:30:40;11.00;;;5.88;;
43664;SDS011;29263;48.172;11.484;2023-09-08T07:33:06;9.57;;;5.95;;
43664;SDS011;29263;48.172;11.484;2023-09-08T07:35:32;10.32;;;5.75;;
43664;SDS011;29263;48.172;11.484;2023-09-08T07:38:01;7.95;;;5.82;;
43664;SDS011;29263;48.172;11.484;2023-09-08T07:40:26;8.18;;;5.45;;
43664;SDS011;29263;48.172;11.484;2023-09-08T07:42:52;7.57;;;4.93;;
43664;SDS011;29263;48.172;11.484;2023-09-08T07:45:17;7.75;;;5.00;;
43664;SDS011;29263;48.172;11.484;2023-09-08T07:47:43;7.13;;;4.07;;
43664;SDS011;29263;48.172;11.484;2023-09-08T07:50:26;8.77;;;5.38;;
43664;SDS011;29263;48.172;11.484;2023-09-08T07:52:54;7.45;;;5.50;;
43664;SDS011;29263;48.172;11.484;2023-09-08T07:55:21;13.60;;;4.95;;
43664;SDS011;29263;48.172;11.484;2023-09-08T07:57:48;5.80;;;4.72;;
43664;SDS011;29263;48.172;11.484;2023-09-08T08:00:15;9.23;;;5.07;;
43664;SDS011;29263;48.172;11.484;2023-09-08T08:02:44;7.80;;;5.00;;
43664;SDS011;29263;48.172;11.484;2023-09-08T08:05:11;10.43;;;4.80;;
43664;SDS011;29263;48.172;11.484;2023-09-08T08:07:38;7.15;;;5.20;;
43664;SDS011;29263;48.172;11.484;2023-09-08T08:10:04;9.82;;;5.45;;
43664;SDS011;29263;48.172;11.484;2023-09-08T08:14:59;9.68;;;5.65;;
43664;SDS011;29263;48.172;11.484;2023-09-08T08:17:25;9.73;;;5.95;;
43664;SDS011;29263;48.172;11.484;2023-09-08T08:19:52;8.65;;;5.18;;
43664;SDS011;29263;48.172;11.484;2023-09-08T08:22:19;9.93;;;5.90;;
43664;SDS011;29263;48.172;11.484;2023-09-08T08:24:45;7.68;;;5.47;;
43664;SDS011;29263;48.172;11.484;2023-09-08T08:27:10;6.60;;;5.00;;
43664;SDS011;29263;48.172;11.484;2023-09-08T08:29:36;7.55;;;5.03;;
43664;SDS011;29263;48.172;11.484;2023-09-08T08:32:01;8.32;;;6.13;;
43664;SDS011;29263;48.172;11.484;2023-09-08T08:34:27;8.70;;;5.43;;
43664;SDS011;29263;48.172;11.484;2023-09-08T08:36:53;9.65;;;4.88;;
43664;SDS011;29263;48.172;11.484;2023-09-08T08:39:19;9.80;;;5.05;;
43664;SDS011;29263;48.172;11.484;2023-09-08T08:41:45;8.07;;;4.70;;
43664;SDS011;29263;48.172;11.484;2023-09-08T08:44:10;6.78;;;5.03;;
43664;SDS011;29263;48.172;11.484;2023-09-08T08:46:36;7.95;;;4.88;;
43664;SDS011;29263;48.172;11.484;2023-09-08T08:49:03;6.70;;;4.53;;
43664;SDS011;29263;48.172;11.484;2023-09-08T08:51:30;13.40;;;4.78;;
43664;SDS011;29263;48.172;11.484;2023-09-08T08:53:56;9.27;;;4.57;;
43664;SDS011;29263;48.172;11.484;2023-09-08T08:56:22;12.48;;;5.82;;
43664;SDS011;29263;48.172;11.484;2023-09-08T08:58:48;6.93;;;4.57;;
43664;SDS011;29263;48.172;11.484;2023-09-08T09:01:18;6.25;;;4.63;;
43664;SDS011;29263;48.172;11.484;2023-09-08T09:03:47;9.30;;;4.78;;
43664;SDS011;29263;48.172;11.484;2023-09-08T09:06:14;9.43;;;4.90;;
43664;SDS011;29263;48.172;11.484;2023-09-08T09:08:40;6.82;;;4.45;;
43664;SDS011;29263;48.172;11.484;2023-09-08T09:11:09;6.47;;;4.50;;
43664;SDS011;29263;48.172;11.484;2023-09-08T09:13:35;6.22;;;3.92;;
43664;SDS011;29263;48.172;11.484;2023-09-08T09:16:01;8.07;;;4.22;;
43664;SDS011;29263;48.172;11.484;2023-09-08T09:18:28;6.90;;;4.30;;
43664;SDS011;29263;48.172;11.484;2023-09-08T09:20:56;6.70;;;4.40;;
43664;SDS011;29263;48.172;11.484;2023-09-08T09:23:30;4.95;;;3.65;;
43664;SDS011;29263;48.172;11.484;2023-09-08T09:25:57;7.90;;;4.35;;
43664;SDS011;29263;48.172;11.484;2023-09-08T09:28:24;6.93;;;4.38;;
43664;SDS011;29263;48.172;11.484;2023-09-08T09:30:51;5.57;;;3.83;;
43664;SDS011;29263;48.172;11.484;2023-09-08T09:33:19;8.48;;;4.18;;
43664;SDS011;29263;48.172;11.484;2023-09-08T09:35:47;8.50;;;4.25;;
43664;SDS011;29263;48.172;11.484;2023-09-08T09:38:16;8.48;;;4.70;;
43664;SDS011;29263;48.172;11.484;2023-09-08T09:40:46;7.45;;;4.35;;
43664;SDS011;29263;48.172;11.484;2023-09-08T09:43:13;7.80;;;4.95;;
43664;SDS011;29263;48.172;11.484;2023-09-08T09:45:41;8.45;;;4.90;;
43664;SDS011;29263;48.172;11.484;2023-09-08T09:48:08;7.38;;;4.47;;
43664;SDS011;29263;48.172;11.484;2023-09-08T09:50:35;7.45;;;4.75;;
43664;SDS011;29263;48.172;11.484;2023-09-08T09:53:11;6.97;;;4.25;;
43664;SDS011;29263;48.172;11.484;2023-09-08T09:55:38;7.28;;;4.18;;
43664;SDS011;29263;48.172;11.484;2023-09-08T09:58:06;9.55;;;5.13;;
43664;SDS011;29263;48.172;11.484;2023-09-08T10:00:32;7.70;;;5.00;;
43664;SDS011;29263;48.172;11.484;2023-09-08T10:02:59;6.88;;;3.90;;
43664;SDS011;29263;48.172;11.484;2023-09-08T10:05:26;5.43;;;4.28;;
43664;SDS011;29263;48.172;11.484;2023-09-08T10:07:52;7.88;;;3.88;;
43664;SDS011;29263;48.172;11.484;2023-09-08T10:10:18;5.45;;;3.53;;
43664;SDS011;29263;48.172;11.484;2023-09-08T10:12:45;6.78;;;4.10;;
43664;SDS011;29263;48.172;11.484;2023-09-08T10:15:17;6.15;;;3.92;;
43664;SDS011;29263;48.172;11.484;2023-09-08T10:17:46;5.32;;;4.07;;
43664;SDS011;29263;48.172;11.484;2023-09-08T10:20:17;5.07;;;4.20;;
43664;SDS011;29263;48.172;11.484;2023-09-08T10:22:46;7.47;;;4.78;;
43664;SDS011;29263;48.172;11.484;2023-09-08T10:25:15;9.60;;;5.10;;
43664;SDS011;29263;48.172;11.484;2023-09-08T10:27:43;4.97;;;3.80;;
43664;SDS011;29263;48.172;11.484;2023-09-08T10:30:09;7.07;;;4.38;;
43664;SDS011;29263;48.172;11.484;2023-09-08T10:32:36;6.80;;;4.13;;
43664;SDS011;29263;48.172;11.484;2023-09-08T10:35:03;7.20;;;4.05;;
43664;SDS011;29263;48.172;11.484;2023-09-08T10:37:29;4.95;;;3.83;;
43664;SDS011;29263;48.172;11.484;2023-09-08T10:39:55;5.03;;;3.78;;
43664;SDS011;29263;48.172;11.484;2023-09-08T10:42:41;4.80;;;3.97;;
43664;SDS011;29263;48.172;11.484;2023-09-08T10:45:16;5.53;;;4.05;;
43664;SDS011;29263;48.172;11.484;2023-09-08T10:50:17;4.85;;;3.45;;
43664;SDS011;29263;48.172;11.484;2023-09-08T10:58:17;6.20;;;3.67;;
43664;SDS011;29263;48.172;11.484;2023-09-08T11:00:47;5.20;;;4.00;;
43664;SDS011;29263;48.172;11.484;2023-09-08T11:03:25;5.25;;;3.78;;
43664;SDS011;29263;48.172;11.484;2023-09-08T11:05:52;5.95;;;3.90;;
43664;SDS011;29263;48.172;11.484;2023-09-08T11:08:18;7.25;;;4.15;;
43664;SDS011;29263;48.172;11.484;2023-09-08T11:10:44;6.93;;;4.40;;
43664;SDS011;29263;48.172;11.484;2023-09-08T11:13:10;4.75;;;3.67;;
43664;SDS011;29263;48.172;11.484;2023-09-08T11:15:36;6.13;;;4.13;;
43664;SDS011;29263;48.172;11.484;2023-09-08T11:18:05;3.88;;;3.47;;
43664;SDS011;29263;48.172;11.484;2023-09-08T11:20:32;4.90;;;3.65;;
43664;SDS011;29263;48.172;11.484;2023-09-08T11:22:57;4.40;;;3.95;;
43664;SDS011;29263;48.172;11.484;2023-09-08T11:25:24;9.18;;;4.40;;
43664;SDS011;29263;48.172;11.484;2023-09-08T11:27:50;4.82;;;4.10;;
43664;SDS011;29263;48.172;11.484;2023-09-08T11:30:15;5.53;;;3.88;;
43664;SDS011;29263;48.172;11.484;2023-09-08T11:32:42;5.60;;;3.95;;
43664;SDS011;29263;48.172;11.484;2023-09-08T11:35:09;5.13;;;3.85;;
43664;SDS011;29263;48.172;11.484;2023-09-08T11:37:38;6.03;;;4.50;;
43664;SDS011;29263;48.172;11.484;2023-09-08T11:40:05;5.20;;;4.07;;
43664;SDS011;29263;48.172;11.484;2023-09-08T11:42:37;5.75;;;3.72;;
43664;SDS011;29263;48.172;11.484;2023-09-08T11:45:09;5.50;;;3.95;;
43664;SDS011;29263;48.172;11.484;2023-09-08T11:47:41;5.93;;;3.92;;
43664;SDS011;29263;48.172;11.484;2023-09-08T11:50:11;6.50;;;3.80;;
43664;SDS011;29263;48.172;11.484;2023-09-08T11:52:40;6.03;;;3.40;;
43664;SDS011;29263;48.172;11.484;2023-09-08T11:55:09;4.38;;;3.88;;
43664;SDS011;29263;48.172;11.484;2023-09-08T11:57:36;5.40;;;4.55;;
43664;SDS011;29263;48.172;11.484;2023-09-08T12:00:02;7.82;;;4.10;;
43664;SDS011;29263;48.172;11.484;2023-09-08T12:02:33;6.22;;;3.80;;
43664;SDS011;29263;48.172;11.484;2023-09-08T12:05:00;5.82;;;3.95;;
43664;SDS011;29263;48.172;11.484;2023-09-08T12:07:26;4.07;;;3.67;;
43664;SDS011;29263;48.172;11.484;2023-09-08T12:09:52;7.05;;;4.25;;
43664;SDS011;29263;48.172;11.484;2023-09-08T12:12:17;4.90;;;3.78;;
43664;SDS011;29263;48.172;11.484;2023-09-08T12:14:43;5.30;;;4.13;;
43664;SDS011;29263;48.172;11.484;2023-09-08T12:17:09;7.20;;;3.85;;
43664;SDS011;29263;48.172;11.484;2023-09-08T12:19:34;6.25;;;3.75;;
43664;SDS011;29263;48.172;11.484;2023-09-08T12:22:04;5.82;;;3.45;;
43664;SDS011;29263;48.172;11.484;2023-09-08T12:27:21;4.28;;;2.97;;
43664;SDS011;29263;48.172;11.484;2023-09-08T12:30:00;5.35;;;3.33;;
43664;SDS011;29263;48.172;11.484;2023-09-08T12:32:28;4.15;;;3.28;;
43664;SDS011;29263;48.172;11.484;2023-09-08T12:34:55;3.70;;;3.33;;
43664;SDS011;29263;48.172;11.484;2023-09-08T12:37:21;4.18;;;3.17;;
43664;SDS011;29263;48.172;11.484;2023-09-08T12:39:48;6.72;;;3.22;;
43664;SDS011;29263;48.172;11.484;2023-09-08T12:42:13;4.82;;;3.50;;
43664;SDS011;29263;48.172;11.484;2023-09-08T12:44:39;6.32;;;3.85;;
43664;SDS011;29263;48.172;11.484;2023-09-08T12:47:06;4.88;;;3.65;;
43664;SDS011;29263;48.172;11.484;2023-09-08T12:49:31;7.05;;;3.88;;
43664;SDS011;29263;48.172;11.484;2023-09-08T12:51:57;4.38;;;3.38;;
43664;SDS011;29263;48.172;11.484;2023-09-08T12:54:23;4.07;;;3.53;;
43664;SDS011;29263;48.172;11.484;2023-09-08T12:56:49;4.43;;;3.33;;
43664;SDS011;29263;48.172;11.484;2023-09-08T12:59:15;3.60;;;3.22;;
43664;SDS011;29263;48.172;11.484;2023-09-08T13:01:41;5.90;;;3.80;;
43664;SDS011;29263;48.172;11.484;2023-09-08T13:04:07;4.35;;;3.80;;
43664;SDS011;29263;48.172;11.484;2023-09-08T13:06:32;4.15;;;3.45;;
43664;SDS011;29263;48.172;11.484;2023-09-08T13:08:59;6.40;;;3.60;;
43664;SDS011;29263;48.172;11.484;2023-09-08T13:11:25;7.22;;;3.95;;
43664;SDS011;29263;48.172;11.484;2023-09-08T13:13:51;4.57;;;3.63;;
43664;SDS011;29263;48.172;11.484;2023-09-08T13:16:17;3.90;;;3.53;;
43664;SDS011;29263;48.172;11.484;2023-09-08T13:18:42;4.93;;;3.95;;
43664;SDS011;29263;48.172;11.484;2023-09-08T13:21:10;4.07;;;3.67;;
43664;SDS011;29263;48.172;11.484;2023-09-08T13:23:36;9.02;;;4.43;;
43664;SDS011;29263;48.172;11.484;2023-09-08T13:26:01;5.45;;;4.00;;
43664;SDS011;29263;48.172;11.484;2023-09-08T13:28:27;3.70;;;3.40;;
43664;SDS011;29263;48.172;11.484;2023-09-08T13:30:53;7.22;;;4.00;;
43664;SDS011;29263;48.172;11.484;2023-09-08T13:33:18;4.90;;;3.58;;
43664;SDS011;29263;48.172;11.484;2023-09-08T13:35:44;4.57;;;4.15;;
43664;SDS011;29263;48.172;11.484;2023-09-08T13:38:09;5.32;;;4.07;;
43664;SDS011;29263;48.172;11.484;2023-09-08T13:40:35;5.38;;;4.10;;
43664;SDS011;29263;48.172;11.484;2023-09-08T13:43:01;7.50;;;4.22;;
43664;SDS011;29263;48.172;11.484;2023-09-08T13:45:26;6.55;;;4.03;;
43664;SDS011;29263;48.172;11.484;2023-09-08T13:47:52;6.35;;;3.90;;
43664;SDS011;29263;48.172;11.484;2023-09-08T13:50:17;4.60;;;3.83;;
43664;SDS011;29263;48.172;11.484;2023-09-08T13:52:43;5.10;;;3.92;;
43664;SDS011;29263;48.172;11.484;2023-09-08T13:55:09;4.47;;;3.63;;
43664;SDS011;29263;48.172;11.484;2023-09-08T13:57:35;5.18;;;3.85;;
43664;SDS011;29263;48.172;11.484;2023-09-08T14:00:01;3.63;;;3.25;;
43664;SDS011;29263;48.172;11.484;2023-09-08T14:02:28;4.70;;;3.88;;
43664;SDS011;29263;48.172;11.484;2023-09-08T14:04:53;6.68;;;3.40;;
43664;SDS011;29263;48.172;11.484;2023-09-08T14:07:19;4.20;;;3.15;;
43664;SDS011;29263;48.172;11.484;2023-09-08T14:09:45;6.70;;;4.20;;
43664;SDS011;29263;48.172;11.484;2023-09-08T14:12:10;9.30;;;4.90;;
43664;SDS011;29263;48.172;11.484;2023-09-08T14:14:36;9.00;;;5.50;;
43664;SDS011;29263;48.172;11.484;2023-09-08T14:17:01;4.40;;;3.90;;
43664;SDS011;29263;48.172;11.484;2023-09-08T14:19:27;7.32;;;4.47;;
43664;SDS011;29263;48.172;11.484;2023-09-08T14:21:53;5.18;;;4.10;;
43664;SDS011;29263;48.172;11.484;2023-09-08T14:24:18;5.60;;;4.28;;
43664;SDS011;29263;48.172;11.484;2023-09-08T14:26:46;5.78;;;4.10;;
43664;SDS011;29263;48.172;11.484;2023-09-08T14:29:11;5.95;;;5.00;;
43664;SDS011;29263;48.172;11.484;2023-09-08T14:31:37;9.23;;;7.25;;
43664;SDS011;29263;48.172;11.484;2023-09-08T14:34:02;6.40;;;5.60;;
43664;SDS011;29263;48.172;11.484;2023-09-08T14:36:29;7.68;;;4.60;;
43664;SDS011;29263;48.172;11.484;2023-09-08T14:38:54;5.55;;;5.05;;
43664;SDS011;29263;48.172;11.484;2023-09-08T14:41:21;7.80;;;6.53;;
43664;SDS011;29263;48.172;11.484;2023-09-08T14:43:46;18.65;;;12.02;;
43664;SDS011;29263;48.172;11.484;2023-09-08T14:46:12;17.67;;;11.18;;